Monroe, Washington
Current Conditions -  °F | °C
As of 12:53 PM on Wednesday 26 Nov 2014 (Local Time) from KPAE Reporting Station
Scattered Clouds Scattered Clouds  
Wind Chill: 57°   Ceiling: Unl
Heat Index: 57°   Visibility: 10mi
Dew Point: 51°   Wind: 28mph
Humidity: 81%   Direction: 190°S
Pressure: 30.05"   Gusts: 36mph
Location:  47.86°N, 121.97°W
Report Text: KPAE 262053Z 19024G31KT 10SM FEW035 SCT060 14/11 A3005 RMK AO2 PK WND 21033/2039 SLP176 T01390106 56013
Loading
Personal Weather Stations






























Interactive Weather Map New forecast layout! Learn more

10-Day Weather Forecast

Advertisements
Track Severe Weather on mobile